Airfield :
LOGIN :

Register | Disclaimer

   EN    FR    IT 

 










Legend :    VFR   Marginal VFR   IFR   Intensive IFR   Very Intensive IFR
Visi :
Ceiling :
>= 8 km
>= 3000ft
5 to 8 km
1000 to 3000 ft
1500m to 5 km
500 to 1000 ft
800 to 1500m
200 to 500 ft
< 800m
< 200 ft
Symbols :   Thunderstorms  Fog  Heavy snow  Heavy precipitations  Wind > 20 kt
SIGMETs :     Misc.  Thunderstorms  Icing  Turbulence  Mountain Waves  Volcanic Ashes






- Airport Elevation : 239 ft
- IATA code : VRN


LIPX - Villafranca Int. Verona

CURRENT METAR :
  • 241320Z 12005KT 7000 FEW060 08/01 Q1027

EXPIRED METARs :
  • 241250Z 09006KT 050V110 7000 FEW060 07/01 Q1027
  • 241220Z 10004KT 050V140 6000 FEW060 07/01 Q1027
  • 241150Z 08004KT 050V120 6000 FEW060 06/01 Q1027
  • 241120Z 13004KT 6000 NSC 05/00 Q1028
  • 241050Z 09003KT 060V120 6000 NSC 04/00 Q1028

TAF TAF LIPX
Valid from the 24 at 12:00 until the 24 at 21:00 UTC


241100Z 2412/2421 VRB05KT 8000 SCT060



MET'MAP, your aeronautical weather chart ! - Copyright ORBIFLY December 2007 - Disclaimer

ORBIFLY MET'MAP TEAM :

Programming & Development : Alexandra Zaïnal
Concept & original design : Baudouin d'Aumeries
Assistance for programming : Marc-Olivier Méhu
Technical & hardware support : Manuel Goepfert

Contact : metmap@orbifly.com




SOURCES & CREDITS :

   NOAA